Hamilton, New Zealand
Current Conditions -  °F | °C
As of 2:30 AM on Monday 24 Nov 2014 (Local Time) from NZAA Reporting Station
Broken Clouds Broken Clouds  
Wind Chill: 57°   Ceiling: 10000
Heat Index: 57°   Visibility: 6mi
Dew Point: 52°   Wind: 3mph
Humidity: 82%   Direction: 60°ENE
Pressure: 30.06"   Gusts: NA
Location:  37.79°S, 175.28°E
Report Text: NZAA 231430Z AUTO 06003KT 9999 BKN100/// 14/11 Q1018 NOSIG
Loading
Personal Weather Stations






























Interactive Weather Map New forecast layout! Learn more

10-Day Weather Forecast

Advertisements
Track Severe Weather on mobile